Time;durP1;ratioP1;P1;durP2;ratioP2;P2;SDS_P1;SDS_P2;PMS_P1;PMS_P2;Temp;Humidity;BMP_temperature;BMP_pressure;BME280_temperature;BME280_humidity;BME280_pressure;Samples;Min_cycle;Max_cycle;Signal;HPM_P1;HPM_P2
2021/10/05 00:02:18;;;;;;;3.50;2.53;;;10.60;99.90;;;;;;4997267;28;20182;-77
2021/10/05 00:04:43;;;;;;;4.27;2.33;;;10.50;99.90;;;;;;4980785;28;20207;-77
2021/10/05 00:07:09;;;;;;;3.90;2.70;;;10.50;99.90;;;;;;5013431;28;20174;-77
2021/10/05 00:09:35;;;;;;;4.30;2.77;;;10.40;99.90;;;;;;5013184;28;20203;-77
2021/10/05 00:12:01;;;;;;;2.93;2.27;;;10.30;99.90;;;;;;4997254;28;20182;-77
2021/10/05 00:14:26;;;;;;;2.90;2.47;;;10.30;99.90;;;;;;5012061;28;20193;-77
2021/10/05 00:16:52;;;;;;;3.50;2.83;;;10.30;99.90;;;;;;4996861;28;20183;-77
2021/10/05 00:19:17;;;;;;;3.50;2.60;;;10.40;99.90;;;;;;4980477;28;20183;-77
2021/10/05 00:21:43;;;;;;;4.43;2.80;;;10.30;99.90;;;;;;4996797;28;20180;-77
2021/10/05 00:24:10;;;;;;;6.93;3.10;;;10.20;99.90;;;;;;4996518;28;20289;-77
2021/10/05 00:26:35;;;;;;;3.33;2.70;;;10.20;99.90;;;;;;4997030;28;20588;-77
2021/10/05 00:29:01;;;;;;;3.13;2.67;;;10.20;99.90;;;;;;4996581;28;20176;-77
2021/10/05 00:31:26;;;;;;;2.77;2.50;;;10.20;99.90;;;;;;4996672;28;20666;-77
2021/10/05 00:33:52;;;;;;;2.90;2.60;;;10.20;99.90;;;;;;4996564;28;20246;-76
2021/10/05 00:36:18;;;;;;;3.00;2.70;;;10.20;99.90;;;;;;4996429;28;20179;-77
2021/10/05 00:38:43;;;;;;;3.33;2.80;;;10.20;99.90;;;;;;5012682;28;20186;-77
2021/10/05 00:41:09;;;;;;;3.07;2.73;;;10.20;99.90;;;;;;4996549;28;20178;-76
2021/10/05 00:43:34;;;;;;;3.83;2.70;;;10.20;99.90;;;;;;4996247;28;20560;-77
2021/10/05 00:46:00;;;;;;;5.50;2.90;;;10.10;99.90;;;;;;4996378;28;20278;-77
2021/10/05 00:48:25;;;;;;;3.90;3.00;;;10.10;99.90;;;;;;5012470;28;20176;-77
2021/10/05 00:50:51;;;;;;;3.23;2.90;;;10.10;99.90;;;;;;4996550;28;20172;-76
2021/10/05 00:53:17;;;;;;;3.57;3.07;;;10.10;99.90;;;;;;5012421;28;20686;-77
2021/10/05 00:55:42;;;;;;;3.33;3.03;;;10.20;99.90;;;;;;4996331;28;20571;-77
2021/10/05 00:58:08;;;;;;;2.90;2.60;;;10.20;99.90;;;;;;5012245;28;20180;-77
2021/10/05 01:00:34;;;;;;;4.20;2.97;;;10.20;99.90;;;;;;4996153;28;20183;-77
2021/10/05 01:02:59;;;;;;;4.13;3.10;;;10.30;99.90;;;;;;4995998;28;20209;-77
2021/10/05 01:05:25;;;;;;;3.20;2.90;;;10.30;99.90;;;;;;5013376;28;20206;-77
2021/10/05 01:07:50;;;;;;;3.83;3.10;;;10.30;99.90;;;;;;5013185;28;20185;-77
2021/10/05 01:10:19;;;;;;;3.57;2.90;;;10.30;99.90;;;;;;4979747;28;20693;-77
2021/10/05 01:12:49;;;;;;;4.17;3.00;;;10.30;99.90;;;;;;4996236;28;20174;-76
2021/10/05 01:15:16;;;;;;;4.63;3.10;;;10.30;99.90;;;;;;5012334;28;20175;-77
2021/10/05 01:17:42;;;;;;;4.57;3.10;;;10.30;99.90;;;;;;4995708;28;20187;-77
2021/10/05 01:20:08;;;;;;;3.30;2.90;;;10.30;99.90;;;;;;5011821;28;20183;-77
2021/10/05 01:22:33;;;;;;;5.60;3.17;;;10.30;99.90;;;;;;5011726;28;20589;-76
2021/10/05 01:25:06;;;;;;;5.37;3.00;;;10.30;99.90;;;;;;4979117;28;20224;-77
2021/10/05 01:27:39;;;;;;;3.67;3.00;;;10.30;99.90;;;;;;4996244;28;20187;-77
2021/10/05 01:30:05;;;;;;;3.20;2.90;;;10.30;99.90;;;;;;4980059;28;20210;-77
2021/10/05 01:32:30;;;;;;;3.73;3.30;;;10.30;99.90;;;;;;4979149;28;20268;-77
2021/10/05 01:34:56;;;;;;;3.50;2.90;;;10.30;99.90;;;;;;4995388;28;20193;-77
2021/10/05 01:37:21;;;;;;;3.50;3.10;;;10.30;99.90;;;;;;4979076;28;20186;-77
2021/10/05 01:39:47;;;;;;;7.23;3.20;;;10.30;99.90;;;;;;4995256;28;20203;-77
2021/10/05 01:42:13;;;;;;;6.13;3.53;;;10.30;99.90;;;;;;5011639;28;20182;-77
2021/10/05 01:44:39;;;;;;;3.20;2.90;;;10.40;99.90;;;;;;4995111;28;20256;-77
2021/10/05 01:47:05;;;;;;;4.70;3.00;;;10.40;99.90;;;;;;5011644;28;20182;-77
2021/10/05 01:49:31;;;;;;;4.13;3.23;;;10.40;99.90;;;;;;4995110;28;20589;-77
2021/10/05 01:51:56;;;;;;;3.57;2.90;;;10.30;99.90;;;;;;4995275;28;20164;-77
2021/10/05 01:54:22;;;;;;;3.03;2.70;;;10.20;99.90;;;;;;5011369;28;20670;-76
2021/10/05 01:56:48;;;;;;;3.93;3.03;;;10.20;99.90;;;;;;4979056;28;20647;-77
2021/10/05 01:59:13;;;;;;;3.17;2.87;;;10.20;99.90;;;;;;4994945;28;20240;-77
2021/10/05 02:01:39;;;;;;;2.93;2.67;;;10.10;99.90;;;;;;5011265;28;20203;-77
2021/10/05 02:04:06;;;;;;;3.40;3.10;;;10.10;99.90;;;;;;4978589;28;20277;-77
2021/10/05 02:06:32;;;;;;;4.80;3.27;;;10.00;99.90;;;;;;4994758;28;20567;-77
2021/10/05 02:08:57;;;;;;;3.10;2.80;;;10.10;99.90;;;;;;5010917;28;20180;-77
2021/10/05 02:11:24;;;;;;;4.83;2.87;;;10.10;99.90;;;;;;5011132;28;20293;-77
2021/10/05 02:13:49;;;;;;;4.00;3.00;;;10.10;99.90;;;;;;4994800;28;20658;-77
2021/10/05 02:16:15;;;;;;;3.47;3.00;;;10.20;99.90;;;;;;4994780;28;20254;-76
2021/10/05 02:18:46;;;;;;;4.87;2.93;;;10.00;99.90;;;;;;4978478;28;20211;-77
2021/10/05 02:21:14;;;;;;;5.00;2.80;;;10.10;99.90;;;;;;4979910;28;20186;-77
2021/10/05 02:26:24;;;;;;;3.50;2.90;;;10.10;99.90;;;;;;5011302;28;20209;-77
2021/10/05 02:28:50;;;;;;;5.90;2.90;;;10.20;99.90;;;;;;5010766;28;20172;-77
2021/10/05 02:31:15;;;;;;;3.20;2.90;;;10.10;99.90;;;;;;4994738;28;20237;-77
2021/10/05 02:33:41;;;;;;;3.53;3.17;;;10.10;99.90;;;;;;4979700;28;20202;-77
2021/10/05 02:36:07;;;;;;;2.90;2.60;;;10.20;99.90;;;;;;4995820;28;20175;-77
2021/10/05 02:38:32;;;;;;;2.87;2.60;;;10.20;99.90;;;;;;5000472;28;20266;-77
2021/10/05 02:40:58;;;;;;;4.37;3.10;;;10.20;99.90;;;;;;4984326;28;20191;-77
2021/10/05 02:43:23;;;;;;;3.23;2.90;;;10.30;99.90;;;;;;5000946;28;20202;-77
2021/10/05 02:45:49;;;;;;;3.97;3.00;;;10.30;99.90;;;;;;4982483;28;20236;-77
2021/10/05 02:48:14;;;;;;;3.87;2.50;;;10.20;99.90;;;;;;4998473;28;20221;-77
2021/10/05 02:50:40;;;;;;;2.93;2.57;;;10.30;99.90;;;;;;5014846;28;20175;-77
2021/10/05 02:53:05;;;;;;;3.10;2.80;;;10.10;99.90;;;;;;4981603;28;20195;-77
2021/10/05 02:55:31;;;;;;;3.20;2.90;;;10.10;99.90;;;;;;4982243;28;20229;-77
2021/10/05 02:57:56;;;;;;;4.07;3.17;;;10.00;99.90;;;;;;4981932;28;20266;-77
2021/10/05 03:00:22;;;;;;;4.07;2.90;;;10.00;99.90;;;;;;4998457;28;20524;-77
2021/10/05 03:02:48;;;;;;;3.73;3.20;;;10.00;99.90;;;;;;4998268;28;20183;-76
2021/10/05 03:05:13;;;;;;;3.20;2.80;;;9.90;99.90;;;;;;4998274;28;20749;-77
2021/10/05 03:07:39;;;;;;;3.53;2.93;;;10.00;99.90;;;;;;4998049;28;20672;-77
2021/10/05 03:10:05;;;;;;;3.83;3.00;;;10.10;99.90;;;;;;4981866;28;20255;-77
2021/10/05 03:12:30;;;;;;;3.07;2.77;;;10.00;99.90;;;;;;4997845;28;20179;-77
2021/10/05 03:14:56;;;;;;;3.50;3.00;;;10.10;99.90;;;;;;4998055;28;20183;-78
2021/10/05 03:17:21;;;;;;;3.37;3.07;;;10.10;99.90;;;;;;5014230;28;20398;-77
2021/10/05 03:19:47;;;;;;;5.33;3.70;;;10.30;99.90;;;;;;4997701;28;20203;-77
2021/10/05 03:22:12;;;;;;;3.77;3.33;;;10.20;99.90;;;;;;4997957;28;20593;-77
2021/10/05 03:24:40;;;;;;;4.00;3.47;;;10.20;99.90;;;;;;4998026;28;20222;-78
2021/10/05 03:27:06;;;;;;;5.17;3.30;;;10.20;99.90;;;;;;4997977;28;20219;-77
2021/10/05 03:29:32;;;;;;;4.00;3.50;;;10.20;99.90;;;;;;4997653;28;20186;-77
2021/10/05 03:31:57;;;;;;;3.57;3.27;;;10.20;99.90;;;;;;4981435;28;20261;-77
2021/10/05 03:34:23;;;;;;;6.57;3.60;;;10.20;99.90;;;;;;4997671;28;20196;-77
2021/10/05 03:36:48;;;;;;;3.80;3.27;;;10.20;99.90;;;;;;4997728;28;20232;-77
2021/10/05 03:39:14;;;;;;;4.40;4.00;;;10.30;99.90;;;;;;5013730;28;20690;-77
2021/10/05 03:41:39;;;;;;;4.20;3.70;;;10.30;99.90;;;;;;5013915;28;20182;-77
2021/10/05 03:44:05;;;;;;;3.60;3.30;;;10.30;99.90;;;;;;5013713;28;20579;-77
2021/10/05 03:46:31;;;;;;;5.03;3.73;;;10.30;99.90;;;;;;4981303;28;20202;-78
2021/10/05 03:48:56;;;;;;;4.43;3.43;;;10.30;99.90;;;;;;5013474;28;20175;-77
2021/10/05 03:51:22;;;;;;;3.57;3.27;;;10.30;99.90;;;;;;4981106;28;20609;-77
2021/10/05 03:53:47;;;;;;;5.57;4.10;;;10.30;99.90;;;;;;4997199;28;20199;-77
2021/10/05 03:56:13;;;;;;;4.10;3.73;;;10.30;99.90;;;;;;4981034;28;20546;-77
2021/10/05 03:58:38;;;;;;;4.80;3.80;;;10.30;99.90;;;;;;4997146;28;20578;-77
2021/10/05 04:01:04;;;;;;;3.57;3.27;;;10.30;99.90;;;;;;4980954;28;20673;-78
2021/10/05 04:03:31;;;;;;;4.20;3.63;;;10.30;99.90;;;;;;4996883;28;20195;-77
2021/10/05 04:05:57;;;;;;;3.63;3.33;;;10.30;99.90;;;;;;4996873;28;20219;-78
2021/10/05 04:08:22;;;;;;;4.33;3.73;;;10.30;99.90;;;;;;4996888;28;20693;-77
2021/10/05 04:10:48;;;;;;;4.97;3.50;;;10.30;99.90;;;;;;4980731;28;20171;-77
2021/10/05 04:13:14;;;;;;;5.23;3.97;;;10.30;99.90;;;;;;4996857;28;20655;-77
2021/10/05 04:15:39;;;;;;;4.20;3.80;;;10.30;99.90;;;;;;5013312;28;20179;-76
2021/10/05 04:18:05;;;;;;;4.33;3.83;;;10.30;99.90;;;;;;4996542;28;20188;-77
2021/10/05 04:20:31;;;;;;;3.97;3.57;;;10.30;99.90;;;;;;4980576;28;20218;-77
2021/10/05 04:22:56;;;;;;;4.37;3.90;;;10.30;99.90;;;;;;5012908;28;20678;-78
2021/10/05 04:25:22;;;;;;;4.53;4.13;;;10.20;99.90;;;;;;4996736;28;20586;-77
2021/10/05 04:27:48;;;;;;;4.37;3.97;;;10.20;99.90;;;;;;4980237;28;20225;-76
2021/10/05 04:30:13;;;;;;;3.77;3.47;;;10.30;99.90;;;;;;5013327;28;20179;-77
2021/10/05 04:32:39;;;;;;;6.17;4.10;;;10.20;99.90;;;;;;4996598;28;20176;-77
2021/10/05 04:35:05;;;;;;;4.80;4.40;;;10.30;99.90;;;;;;4980242;28;20573;-77
2021/10/05 04:37:31;;;;;;;4.53;3.80;;;10.20;99.90;;;;;;4980539;28;20210;-77
2021/10/05 04:39:56;;;;;;;4.30;3.90;;;10.20;99.90;;;;;;4996130;28;20654;-77
2021/10/05 04:42:24;;;;;;;5.57;4.23;;;10.20;99.90;;;;;;4996451;28;20723;-77
2021/10/05 04:44:49;;;;;;;6.63;4.30;;;10.20;99.90;;;;;;4986459;28;20304;-77
2021/10/05 04:47:15;;;;;;;5.43;4.50;;;10.20;99.90;;;;;;5002637;28;20210;-77
2021/10/05 04:49:41;;;;;;;5.03;4.50;;;10.20;99.90;;;;;;5012337;28;20186;-77
2021/10/05 04:52:06;;;;;;;4.40;4.00;;;10.20;99.90;;;;;;5012802;28;20186;-77
2021/10/05 04:54:32;;;;;;;4.70;4.30;;;10.20;99.90;;;;;;5012659;28;20211;-77
2021/10/05 04:56:58;;;;;;;5.03;4.50;;;10.20;99.90;;;;;;5012458;28;20598;-77
2021/10/05 04:59:23;;;;;;;4.60;4.17;;;10.20;99.90;;;;;;4996063;28;20183;-78
2021/10/05 05:01:49;;;;;;;4.87;4.40;;;10.20;99.90;;;;;;5014666;28;20693;-77
2021/10/05 05:04:16;;;;;;;5.47;4.67;;;10.20;99.90;;;;;;5013960;28;20253;-77
2021/10/05 05:06:42;;;;;;;4.87;4.37;;;10.20;99.90;;;;;;4982444;28;20269;-77
2021/10/05 05:09:07;;;;;;;4.83;4.43;;;10.20;99.90;;;;;;4983042;28;20221;-75
2021/10/05 05:11:33;;;;;;;5.60;4.90;;;10.20;99.90;;;;;;4998817;28;20661;-75
2021/10/05 05:14:07;;;;;;;6.27;5.17;;;10.10;99.90;;;;;;4997166;28;20248;-77
2021/10/05 05:16:33;;;;;;;5.40;4.90;;;10.10;99.90;;;;;;4983694;28;20662;-76
2021/10/05 05:18:58;;;;;;;4.73;4.23;;;10.10;99.90;;;;;;4996158;28;20281;-76
2021/10/05 05:21:24;;;;;;;4.83;4.33;;;10.00;99.90;;;;;;5014176;28;20241;-74
2021/10/05 05:23:50;;;;;;;5.13;4.47;;;10.00;99.90;;;;;;5013542;28;20226;-76
2021/10/05 05:26:15;;;;;;;7.73;4.87;;;10.00;99.90;;;;;;5013344;28;20654;-75
2021/10/05 05:28:41;;;;;;;5.43;4.87;;;10.00;99.90;;;;;;4997561;28;20182;-76
2021/10/05 05:31:06;;;;;;;5.80;5.07;;;10.00;99.90;;;;;;5014240;28;20172;-76
2021/10/05 05:33:32;;;;;;;6.43;5.00;;;10.10;99.90;;;;;;4998440;28;20203;-76
2021/10/05 05:35:57;;;;;;;6.10;4.80;;;10.00;99.90;;;;;;5015679;28;20633;-74
2021/10/05 05:38:23;;;;;;;6.77;5.33;;;10.00;99.90;;;;;;4997645;28;20248;-76
2021/10/05 05:40:50;;;;;;;7.37;5.33;;;10.10;99.90;;;;;;4996080;28;20183;-75
2021/10/05 05:43:15;;;;;;;5.33;4.77;;;10.10;99.90;;;;;;4995547;28;20246;-76
2021/10/05 05:45:41;;;;;;;6.10;5.50;;;10.10;99.90;;;;;;4979434;28;20245;-76
2021/10/05 05:48:06;;;;;;;5.73;5.23;;;10.10;99.90;;;;;;4995349;28;20207;-76
2021/10/05 05:50:32;;;;;;;5.50;5.00;;;10.00;99.90;;;;;;4995298;28;20187;-75
2021/10/05 05:52:57;;;;;;;6.77;5.10;;;10.00;99.90;;;;;;4995119;28;20261;-75
2021/10/05 05:55:23;;;;;;;5.50;5.00;;;10.00;99.90;;;;;;4995309;28;20584;-75
2021/10/05 05:57:50;;;;;;;5.93;5.33;;;10.00;99.90;;;;;;5011361;28;20264;-76
2021/10/05 06:00:17;;;;;;;6.27;5.07;;;10.00;99.90;;;;;;4995257;28;20273;-74
2021/10/05 06:02:42;;;;;;;5.83;5.33;;;10.00;99.90;;;;;;4995072;28;20729;-75
2021/10/05 06:05:08;;;;;;;5.87;5.13;;;10.10;99.90;;;;;;5011373;28;20213;-76
2021/10/05 06:07:33;;;;;;;6.37;5.50;;;10.00;99.90;;;;;;4994931;28;20183;-76
2021/10/05 06:09:59;;;;;;;6.03;5.10;;;10.00;99.90;;;;;;5011309;28;20640;-75
2021/10/05 06:12:30;;;;;;;6.90;5.13;;;10.00;99.90;;;;;;4994234;28;20306;-75
2021/10/05 06:14:55;;;;;;;6.40;5.80;;;10.00;99.90;;;;;;5012365;28;20629;-73
2021/10/05 06:17:21;;;;;;;6.30;5.73;;;10.00;99.90;;;;;;5011474;28;20386;-72
2021/10/05 06:19:46;;;;;;;6.93;6.27;;;10.10;99.90;;;;;;5012765;28;20642;-74
2021/10/05 06:22:12;;;;;;;7.00;6.30;;;10.10;99.90;;;;;;5011642;28;20202;-73
2021/10/05 06:24:37;;;;;;;6.93;6.03;;;10.10;99.90;;;;;;5011067;28;20590;-73
2021/10/05 06:27:03;;;;;;;6.77;6.17;;;10.20;99.90;;;;;;5012317;28;20174;-73
2021/10/05 06:29:29;;;;;;;6.70;5.97;;;10.20;99.90;;;;;;5010933;28;20180;-75
2021/10/05 06:31:54;;;;;;;7.50;6.20;;;10.30;99.90;;;;;;5011434;28;20178;-73
2021/10/05 06:34:20;;;;;;;7.73;5.90;;;10.30;99.90;;;;;;5011174;28;20285;-74
2021/10/05 06:36:45;;;;;;;6.63;6.03;;;10.40;99.90;;;;;;5011071;28;20193;-73
2021/10/05 06:39:11;;;;;;;6.87;6.27;;;10.30;99.90;;;;;;5011264;28;20256;-74
2021/10/05 06:41:36;;;;;;;7.00;6.30;;;10.30;99.90;;;;;;4997878;28;20229;-78
2021/10/05 06:44:02;;;;;;;6.80;6.10;;;10.40;99.90;;;;;;4998194;28;20199;-75
2021/10/05 06:46:27;;;;;;;6.63;5.97;;;10.40;99.90;;;;;;5012195;28;20179;-76
2021/10/05 06:48:53;;;;;;;6.83;6.13;;;10.40;99.90;;;;;;5013084;28;20653;-75
2021/10/05 06:51:18;;;;;;;6.70;6.10;;;10.50;99.90;;;;;;5033093;28;20548;-74
2021/10/05 06:53:44;;;;;;;9.17;6.47;;;10.60;99.90;;;;;;5029831;28;20201;-74
2021/10/05 06:56:10;;;;;;;7.80;7.03;;;10.60;99.90;;;;;;5015304;28;20194;-74
2021/10/05 06:58:35;;;;;;;8.97;6.83;;;10.60;99.90;;;;;;5029962;28;20182;-77
2021/10/05 07:01:01;;;;;;;6.97;6.13;;;10.70;99.90;;;;;;5014120;28;20193;-75
2021/10/05 07:03:26;;;;;;;7.13;6.17;;;10.70;99.90;;;;;;5031982;28;20205;-75
2021/10/05 07:05:52;;;;;;;6.97;6.10;;;10.70;99.90;;;;;;5013949;28;20603;-74
2021/10/05 07:08:18;;;;;;;7.63;6.43;;;10.80;99.90;;;;;;5030219;28;20265;-74
2021/10/05 07:10:43;;;;;;;8.07;6.27;;;10.80;99.90;;;;;;5014049;28;20606;-75
2021/10/05 07:13:09;;;;;;;6.67;5.97;;;10.80;99.90;;;;;;4997548;28;20210;-74
2021/10/05 07:15:35;;;;;;;7.47;6.10;;;10.80;99.90;;;;;;5031501;28;20186;-74
2021/10/05 07:18:00;;;;;;;8.13;6.03;;;10.90;99.90;;;;;;5030101;28;20181;-74
2021/10/05 07:20:27;;;;;;;6.40;5.67;;;11.00;99.90;;;;;;5031466;28;20182;-74
2021/10/05 07:22:53;;;;;;;5.87;5.33;;;11.00;99.90;;;;;;5022584;28;20217;-74
2021/10/05 07:25:18;;;;;;;7.20;6.00;;;11.00;99.90;;;;;;4997660;28;20302;-74
2021/10/05 07:27:50;;;;;;;7.63;6.80;;;11.10;99.90;;;;;;5015155;28;20182;-74
2021/10/05 07:30:15;;;;;;;6.43;5.80;;;11.00;99.90;;;;;;5014003;28;20730;-74
2021/10/05 07:32:41;;;;;;;7.10;5.87;;;11.10;99.90;;;;;;5014008;28;20281;-74
2021/10/05 07:35:07;;;;;;;6.63;5.93;;;11.10;99.90;;;;;;5013899;28;20183;-73
2021/10/05 07:37:32;;;;;;;7.30;6.00;;;11.20;99.90;;;;;;4997488;28;20187;-73
2021/10/05 07:39:58;;;;;;;6.40;5.80;;;11.10;99.90;;;;;;5014935;28;20576;-73
2021/10/05 07:42:24;;;;;;;10.90;6.50;;;11.10;99.90;;;;;;5015062;28;20179;-74
2021/10/05 07:44:49;;;;;;;6.67;5.97;;;11.10;99.90;;;;;;5014818;28;20206;-74
2021/10/05 07:47:15;;;;;;;6.23;5.60;;;11.20;99.90;;;;;;4997548;28;20175;-74
2021/10/05 07:49:41;;;;;;;6.13;5.53;;;11.30;99.90;;;;;;5014565;28;20182;-74
2021/10/05 07:52:06;;;;;;;7.03;6.40;;;11.30;99.90;;;;;;4997405;28;20203;-74
2021/10/05 07:54:32;;;;;;;7.03;5.77;;;11.50;99.90;;;;;;5014781;28;20587;-74
2021/10/05 07:56:58;;;;;;;7.73;6.27;;;11.50;99.90;;;;;;5014746;28;20182;-74
2021/10/05 07:59:23;;;;;;;7.27;5.97;;;11.70;99.90;;;;;;5013285;28;20182;-74
2021/10/05 08:01:50;;;;;;;6.80;6.17;;;11.80;99.90;;;;;;5013471;28;20651;-74
2021/10/05 08:04:16;;;;;;;7.83;5.90;;;11.90;99.90;;;;;;5013202;28;20203;-74
2021/10/05 08:06:42;;;;;;;6.73;5.70;;;12.10;99.90;;;;;;4997259;28;20179;-74
2021/10/05 08:09:08;;;;;;;7.17;5.90;;;12.20;99.90;;;;;;4996713;28;20190;-75
2021/10/05 08:11:33;;;;;;;6.37;5.77;;;12.40;99.90;;;;;;4997063;28;20229;-74
2021/10/05 08:13:59;;;;;;;5.90;5.30;;;12.50;99.90;;;;;;4996664;28;20199;-74
2021/10/05 08:16:30;;;;;;;7.87;6.20;;;12.50;99.90;;;;;;4996899;28;20179;-74
2021/10/05 08:18:57;;;;;;;6.10;5.50;;;12.60;99.90;;;;;;5012852;28;20176;-73
2021/10/05 08:21:22;;;;;;;7.27;5.63;;;12.80;99.90;;;;;;5010143;28;20182;-73
2021/10/05 08:23:51;;;;;;;7.13;5.27;;;12.90;99.90;;;;;;5012591;28;20214;-73
2021/10/05 08:26:17;;;;;;;8.87;4.77;;;12.90;99.90;;;;;;4996993;28;20241;-73
2021/10/05 08:28:42;;;;;;;6.33;5.73;;;13.00;99.90;;;;;;5012689;28;20185;-73
2021/10/05 08:31:08;;;;;;;6.07;5.47;;;12.90;99.90;;;;;;5012453;28;20592;-73
2021/10/05 08:33:33;;;;;;;6.90;6.00;;;13.00;99.90;;;;;;5013068;28;20203;-73
2021/10/05 08:35:59;;;;;;;5.93;5.23;;;13.10;99.90;;;;;;4993974;28;20184;-74
2021/10/05 08:38:24;;;;;;;6.63;5.37;;;13.30;99.90;;;;;;5008913;28;20183;-74
2021/10/05 08:40:50;;;;;;;5.70;4.87;;;13.40;99.90;;;;;;4960813;28;20551;-73
2021/10/05 08:43:15;;;;;;;5.70;5.10;;;13.60;99.90;;;;;;4976854;28;20257;-74
2021/10/05 08:45:41;;;;;;;5.37;4.87;;;13.80;99.90;;;;;;4976805;28;20204;-73
2021/10/05 08:48:07;;;;;;;7.23;5.37;;;14.00;99.90;;;;;;4992500;28;20181;-74
2021/10/05 08:50:32;;;;;;;5.67;4.80;;;14.60;99.90;;;;;;4977228;28;20263;-74
2021/10/05 08:52:58;;;;;;;6.03;4.67;;;15.20;99.90;;;;;;4993990;28;20218;-74
2021/10/05 08:55:24;;;;;;;5.90;4.37;;;15.20;99.90;;;;;;4976668;28;20188;-74
2021/10/05 08:57:49;;;;;;;6.73;4.77;;;15.00;99.90;;;;;;4992649;28;20181;-73
2021/10/05 09:00:15;;;;;;;5.53;4.73;;;14.80;99.90;;;;;;4994011;28;20180;-73
2021/10/05 09:02:52;;;;;;;5.40;4.80;;;14.60;99.90;;;;;;4960340;28;20184;-73
2021/10/05 09:05:18;;;;;;;5.80;5.20;;;14.50;99.90;;;;;;4976564;28;20253;-73
2021/10/05 09:07:45;;;;;;;6.53;4.87;;;14.50;99.90;;;;;;4976382;28;20176;-74
2021/10/05 09:10:13;;;;;;;6.20;4.80;;;14.50;99.90;;;;;;4960446;28;20184;-74
2021/10/05 09:12:38;;;;;;;5.07;4.57;;;14.70;99.90;;;;;;4976451;28;20169;-74
2021/10/05 09:15:07;;;;;;;5.60;4.30;;;14.90;99.90;;;;;;4976214;28;20191;-74
2021/10/05 09:17:32;;;;;;;5.30;4.80;;;15.20;99.90;;;;;;4976453;28;20184;-74
2021/10/05 09:19:58;;;;;;;4.77;4.20;;;15.90;99.90;;;;;;4992340;28;20191;-74
2021/10/05 09:22:28;;;;;;;4.63;4.10;;;16.00;99.90;;;;;;4994161;28;20183;-73
2021/10/05 09:24:56;;;;;;;4.53;4.10;;;15.70;99.90;;;;;;5072395;23;20234;-81
2021/10/05 09:27:22;;;;;;;4.50;4.10;;;15.60;99.90;;;;;;4980789;28;20234;-81
2021/10/05 09:29:52;;;;;;;4.43;4.03;;;15.40;99.90;;;;;;4977135;28;20200;-80
2021/10/05 09:32:20;;;;;;;6.83;3.90;;;15.20;99.90;;;;;;4995801;28;20180;-81
2021/10/05 09:34:58;;;;;;;4.33;3.87;;;15.20;99.90;;;;;;4978241;28;20567;-81
2021/10/05 09:37:25;;;;;;;5.03;3.93;;;15.10;99.90;;;;;;4970772;28;20191;-81
2021/10/05 09:39:55;;;;;;;4.67;3.77;;;15.10;99.90;;;;;;5012821;28;20175;-81
2021/10/05 09:42:44;;;;;;;4.17;3.77;;;15.00;99.90;;;;;;4996708;28;20194;-81
2021/10/05 09:45:16;;;;;;;5.07;3.73;;;14.90;99.90;;;;;;4998528;28;20202;-81
2021/10/05 09:47:50;;;;;;;5.07;3.90;;;14.80;99.90;;;;;;5013606;28;20416;-81
2021/10/05 09:50:16;;;;;;;5.40;4.13;;;14.90;99.90;;;;;;4979861;28;20275;-81
2021/10/05 09:52:50;;;;;;;4.27;3.80;;;14.90;99.90;;;;;;4996012;28;20261;-81
2021/10/05 09:55:16;;;;;;;4.73;4.33;;;15.00;99.90;;;;;;4980150;28;20187;-81
2021/10/05 09:57:42;;;;;;;4.10;3.70;;;15.00;99.90;;;;;;4979466;28;20223;-81
2021/10/05 10:00:08;;;;;;;6.50;3.80;;;15.00;99.90;;;;;;4996389;28;20179;-81
2021/10/05 10:02:40;;;;;;;3.90;3.40;;;15.00;99.90;;;;;;4996296;28;20551;-82
2021/10/05 10:05:09;;;;;;;6.00;3.80;;;15.00;99.90;;;;;;4981118;28;20211;-82
2021/10/05 10:07:38;;;;;;;3.90;3.23;;;15.20;99.90;;;;;;5001319;28;20190;-81
2021/10/05 10:10:06;;;;;;;3.23;2.93;;;15.30;99.90;;;;;;4979715;28;20176;-81
2021/10/05 10:12:31;;;;;;;5.47;3.00;;;15.50;99.90;;;;;;5011624;28;20178;-81
2021/10/05 10:14:57;;;;;;;3.97;3.20;;;15.60;99.90;;;;;;4995140;28;20195;-80
2021/10/05 10:17:26;;;;;;;3.17;2.87;;;15.60;99.90;;;;;;5011640;28;20184;-79
2021/10/05 10:19:52;;;;;;;3.00;2.70;;;15.60;99.90;;;;;;5012602;28;20171;-79
2021/10/05 10:22:17;;;;;;;5.53;2.67;;;15.70;99.90;;;;;;5011350;28;20233;-77
2021/10/05 10:24:58;;;;;;;2.87;2.53;;;15.60;99.90;;;;;;4994491;28;20290;-77
2021/10/05 10:27:24;;;;;;;3.00;2.40;;;15.70;99.90;;;;;;4995521;28;20164;-81
2021/10/05 10:29:51;;;;;;;2.97;2.30;;;15.90;99.90;;;;;;5012285;28;20187;-81
2021/10/05 10:32:19;;;;;;;1.97;1.77;;;16.10;99.90;;;;;;5011974;28;20175;-80
2021/10/05 10:34:46;;;;;;;2.03;1.70;;;16.20;99.90;;;;;;4998908;28;20282;-80
2021/10/05 10:37:17;;;;;;;1.70;1.60;;;16.30;99.90;;;;;;5012805;28;20189;-81
2021/10/05 10:39:43;;;;;;;3.30;1.63;;;16.50;99.90;;;;;;5013211;28;20176;-81
2021/10/05 10:42:09;;;;;;;3.33;1.50;;;16.40;99.90;;;;;;4996340;28;20176;-81
2021/10/05 10:44:40;;;;;;;1.60;1.47;;;16.40;99.90;;;;;;4995954;28;20227;-81
2021/10/05 10:47:13;;;;;;;2.70;1.40;;;16.30;99.90;;;;;;5016407;28;20179;-81
2021/10/05 10:49:39;;;;;;;1.20;1.10;;;16.40;99.90;;;;;;4991312;28;20172;-78
2021/10/05 10:52:05;;;;;;;1.83;1.10;;;16.60;99.90;;;;;;5011631;28;20852;-78
2021/10/05 10:54:31;;;;;;;1.93;1.03;;;16.80;99.90;;;;;;4995829;28;20199;-78
2021/10/05 10:56:59;;;;;;;2.10;0.90;;;16.90;99.90;;;;;;5011771;28;20523;-78
2021/10/05 10:59:26;;;;;;;2.00;0.80;;;17.20;99.90;;;;;;5014523;28;20777;-78
2021/10/05 11:01:54;;;;;;;2.53;0.87;;;17.60;99.90;;;;;;5015105;28;20175;-79
2021/10/05 11:04:20;;;;;;;2.30;0.70;;;17.60;99.90;;;;;;5014555;28;20270;-78
2021/10/05 11:06:51;;;;;;;2.87;0.60;;;17.90;99.90;;;;;;5014882;28;20275;-78
2021/10/05 11:09:17;;;;;;;4.03;0.70;;;18.20;99.90;;;;;;5015297;28;20168;-78
2021/10/05 11:11:49;;;;;;;0.87;0.53;;;18.40;99.90;;;;;;4995455;28;20177;-78
2021/10/05 11:14:39;;;;;;;0.60;0.57;;;18.50;99.90;;;;;;5012278;28;20254;-78
2021/10/05 11:17:09;;;;;;;2.00;0.57;;;18.60;99.90;;;;;;4998512;28;20195;-78
2021/10/05 11:19:39;;;;;;;1.27;0.80;;;18.50;99.90;;;;;;5015077;28;20164;-78
2021/10/05 11:22:08;;;;;;;2.03;0.53;;;18.40;99.90;;;;;;4998348;28;20168;-78
2021/10/05 11:24:41;;;;;;;1.20;0.67;;;18.50;99.90;;;;;;5014442;28;20265;-78
2021/10/05 11:27:12;;;;;;;1.33;0.70;;;18.40;99.90;;;;;;4998459;28;20258;-78
2021/10/05 11:29:37;;;;;;;1.37;0.63;;;18.50;99.90;;;;;;5014744;28;20251;-78
2021/10/05 11:32:05;;;;;;;1.03;0.60;;;18.50;99.90;;;;;;5014694;28;20279;-79
2021/10/05 11:34:33;;;;;;;1.97;0.60;;;18.50;99.90;;;;;;5014649;28;20204;-78
2021/10/05 11:37:03;;;;;;;1.10;0.53;;;18.50;99.90;;;;;;4998106;28;20187;-79
2021/10/05 11:39:29;;;;;;;1.17;0.47;;;18.40;99.90;;;;;;5014664;28;20933;-78
2021/10/05 11:42:00;;;;;;;1.60;0.50;;;18.30;99.90;;;;;;4998099;28;20191;-77
2021/10/05 11:44:28;;;;;;;1.53;0.80;;;18.40;99.90;;;;;;5014270;28;20552;-78
2021/10/05 11:47:03;;;;;;;2.40;0.70;;;18.30;99.90;;;;;;5014567;28;20658;-77
2021/10/05 11:49:33;;;;;;;0.87;0.53;;;18.40;99.90;;;;;;5015382;28;20666;-78
2021/10/05 11:51:59;;;;;;;1.23;0.60;;;18.40;99.90;;;;;;4997463;28;20180;-78
2021/10/05 11:54:26;;;;;;;0.93;0.50;;;18.40;99.90;;;;;;5013566;28;20195;-78
2021/10/05 11:56:52;;;;;;;1.90;0.50;;;18.40;99.90;;;;;;5013307;28;20547;-77
2021/10/05 11:59:32;;;;;;;0.87;0.50;;;18.40;99.90;;;;;;5012968;28;20190;-76
2021/10/05 12:02:20;;;;;;;1.50;0.50;;;18.40;99.90;;;;;;5013217;28;20195;-77
2021/10/05 12:04:47;;;;;;;1.23;0.60;;;18.40;99.90;;;;;;4996986;28;20203;-76
2021/10/05 12:07:14;;;;;;;1.17;0.57;;;18.50;99.90;;;;;;4996351;28;20191;-77
2021/10/05 12:09:40;;;;;;;0.50;0.50;;;18.50;99.90;;;;;;5011342;28;20180;-76
2021/10/05 12:12:07;;;;;;;2.57;0.67;;;18.60;99.90;;;;;;4996299;28;20651;-76
2021/10/05 12:14:36;;;;;;;0.80;0.60;;;18.60;99.90;;;;;;5012678;28;20211;-77
2021/10/05 12:17:09;;;;;;;1.53;0.60;;;18.60;99.90;;;;;;5013041;28;20179;-77
2021/10/05 12:19:37;;;;;;;0.67;0.50;;;18.50;99.90;;;;;;4996706;28;20546;-77
2021/10/05 12:22:05;;;;;;;0.73;0.57;;;18.60;99.90;;;;;;5012772;28;20555;-76
2021/10/05 12:24:56;;;;;;;1.10;0.60;;;18.60;99.90;;;;;;5012519;28;20214;-76
2021/10/05 12:27:25;;;;;;;0.87;0.50;;;18.60;99.90;;;;;;5009417;28;20188;-77
2021/10/05 12:29:55;;;;;;;1.60;0.60;;;18.50;99.90;;;;;;5014122;28;20171;-77
2021/10/05 12:32:44;;;;;;;2.83;0.67;;;18.50;99.90;;;;;;5012967;28;20164;-77
2021/10/05 12:35:23;;;;;;;1.67;0.80;;;18.60;99.90;;;;;;5012966;28;20196;-77
2021/10/05 12:37:56;;;;;;;0.70;0.60;;;18.50;99.90;;;;;;5009248;28;20242;-78
2021/10/05 12:40:22;;;;;;;1.87;0.83;;;18.50;99.90;;;;;;4992865;28;20311;-78
2021/10/05 12:42:47;;;;;;;0.53;0.53;;;18.60;99.90;;;;;;5009028;28;20767;-78
2021/10/05 12:45:18;;;;;;;0.97;0.60;;;18.60;99.90;;;;;;5009595;28;20211;-78
2021/10/05 12:47:54;;;;;;;1.20;0.60;;;18.70;99.90;;;;;;5010012;28;20303;-78
2021/10/05 12:50:20;;;;;;;0.70;0.50;;;18.80;99.90;;;;;;4993898;28;20207;-78